Time;durP1;ratioP1;P1;durP2;ratioP2;P2;SDS_P1;SDS_P2;PMS_P1;PMS_P2;Temp;Humidity;BMP_temperature;BMP_pressure;BME280_temperature;BME280_humidity;BME280_pressure;Samples;Min_cycle;Max_cycle;Signal;HPM_P1;HPM_P2
2022/10/20 00:00:07;;;;;;;;;;;23.90;44.30;;;;;;492396;242;1145;-73
2022/10/20 00:02:08;;;;;;;;;;;24.00;44.30;;;;;;492403;242;1148;-73
2022/10/20 00:04:10;;;;;;;;;;;23.90;44.30;;;;;;492397;242;1182;-73
2022/10/20 00:06:11;;;;;;;;;;;23.90;44.30;;;;;;492365;242;1140;-73
2022/10/20 00:08:12;;;;;;;;;;;23.90;44.40;;;;;;492420;242;1106;-73
2022/10/20 00:10:14;;;;;;;;;;;23.90;44.60;;;;;;492400;242;1128;-73
2022/10/20 00:12:15;;;;;;;;;;;23.90;44.60;;;;;;492398;242;1220;-74
2022/10/20 00:14:16;;;;;;;;;;;23.80;44.60;;;;;;492399;242;1254;-73
2022/10/20 00:16:18;;;;;;;;;;;23.90;44.60;;;;;;492449;242;1128;-73
2022/10/20 00:18:19;;;;;;;;;;;23.90;44.60;;;;;;492335;242;2200;-73
2022/10/20 00:20:20;;;;;;;;;;;23.90;44.60;;;;;;492391;242;1193;-73
2022/10/20 00:22:22;;;;;;;;;;;24.00;44.70;;;;;;492409;242;1235;-73
2022/10/20 00:24:23;;;;;;;;;;;24.00;44.70;;;;;;492426;242;1190;-73
2022/10/20 00:26:24;;;;;;;;;;;24.00;44.70;;;;;;492393;242;1117;-74
2022/10/20 00:28:26;;;;;;;;;;;24.00;44.80;;;;;;492414;242;1208;-74
2022/10/20 00:30:27;;;;;;;;;;;24.00;44.80;;;;;;492402;242;1361;-74
2022/10/20 00:32:29;;;;;;;;;;;24.00;44.80;;;;;;492380;242;1100;-74
2022/10/20 00:34:30;;;;;;;;;;;24.00;44.80;;;;;;492399;242;1320;-74
2022/10/20 00:36:31;;;;;;;;;;;24.00;44.80;;;;;;492412;242;1181;-73
2022/10/20 00:38:33;;;;;;;;;;;24.00;44.90;;;;;;492355;242;2157;-73
2022/10/20 00:40:34;;;;;;;;;;;23.90;45.00;;;;;;492376;242;1178;-74
2022/10/20 00:42:35;;;;;;;;;;;23.80;45.20;;;;;;492419;242;1182;-74
2022/10/20 00:44:37;;;;;;;;;;;23.90;45.20;;;;;;492370;242;1173;-74
2022/10/20 00:46:38;;;;;;;;;;;23.90;45.20;;;;;;492445;242;1240;-74
2022/10/20 00:48:39;;;;;;;;;;;23.90;45.30;;;;;;492356;242;1172;-73
2022/10/20 00:50:41;;;;;;;;;;;23.90;45.20;;;;;;492307;242;1268;-73
2022/10/20 00:52:42;;;;;;;;;;;23.90;45.30;;;;;;492315;242;1193;-73
2022/10/20 00:54:43;;;;;;;;;;;23.90;45.30;;;;;;492481;242;1172;-73
2022/10/20 00:56:45;;;;;;;;;;;23.90;45.40;;;;;;492159;242;1280;-73
2022/10/20 00:58:46;;;;;;;;;;;23.90;45.30;;;;;;492405;242;2156;-73
2022/10/20 01:00:47;;;;;;;;;;;23.90;45.30;;;;;;492224;242;1204;-73
2022/10/20 01:02:49;;;;;;;;;;;23.90;45.40;;;;;;492250;242;1267;-73
2022/10/20 01:04:50;;;;;;;;;;;23.90;45.40;;;;;;492349;242;1233;-73
2022/10/20 01:06:52;;;;;;;;;;;23.80;45.40;;;;;;492171;242;1243;-73
2022/10/20 01:08:53;;;;;;;;;;;23.80;45.40;;;;;;492383;242;1184;-73
2022/10/20 01:10:54;;;;;;;;;;;23.90;45.40;;;;;;492359;242;1272;-73
2022/10/20 01:12:56;;;;;;;;;;;23.80;45.40;;;;;;492419;242;1186;-73
2022/10/20 01:14:57;;;;;;;;;;;23.80;45.50;;;;;;492296;242;1414;-73
2022/10/20 01:16:58;;;;;;;;;;;23.90;45.50;;;;;;492400;242;1239;-73
2022/10/20 01:19:02;;;;;;;;;;;23.70;45.60;;;;;;492353;242;2176;-73
2022/10/20 01:21:03;;;;;;;;;;;23.70;45.70;;;;;;492285;242;1518;-73
2022/10/20 01:23:04;;;;;;;;;;;23.80;45.70;;;;;;492366;242;1500;-73
2022/10/20 01:25:05;;;;;;;;;;;23.90;45.50;;;;;;492378;242;1182;-74
2022/10/20 01:27:06;;;;;;;;;;;24.00;45.40;;;;;;492337;242;1208;-73
2022/10/20 01:29:08;;;;;;;;;;;24.00;45.20;;;;;;492338;242;1197;-73
2022/10/20 01:31:09;;;;;;;;;;;24.00;45.10;;;;;;492383;242;1213;-73
2022/10/20 01:33:10;;;;;;;;;;;24.10;45.00;;;;;;492317;242;1143;-71
2022/10/20 01:35:12;;;;;;;;;;;24.10;45.00;;;;;;492291;242;1226;-71
2022/10/20 01:37:13;;;;;;;;;;;24.10;44.80;;;;;;492390;242;1354;-71
2022/10/20 01:39:14;;;;;;;;;;;24.20;44.80;;;;;;492330;242;2196;-71
2022/10/20 01:41:16;;;;;;;;;;;24.20;44.70;;;;;;492406;242;1120;-71
2022/10/20 01:43:17;;;;;;;;;;;24.20;44.60;;;;;;492416;242;1148;-71
2022/10/20 01:45:18;;;;;;;;;;;24.20;44.70;;;;;;492374;242;1181;-71
2022/10/20 01:47:20;;;;;;;;;;;24.10;44.80;;;;;;492390;242;1299;-71
2022/10/20 01:49:21;;;;;;;;;;;24.10;44.80;;;;;;492380;242;1424;-71
2022/10/20 01:51:22;;;;;;;;;;;24.10;44.70;;;;;;492325;242;1182;-71
2022/10/20 01:53:24;;;;;;;;;;;24.10;44.60;;;;;;492440;242;1234;-71
2022/10/20 01:55:25;;;;;;;;;;;24.10;44.60;;;;;;492401;242;1177;-71
2022/10/20 01:57:26;;;;;;;;;;;24.10;44.60;;;;;;492356;242;1206;-71
2022/10/20 01:59:28;;;;;;;;;;;24.10;44.60;;;;;;492333;242;2180;-71
2022/10/20 02:01:29;;;;;;;;;;;24.00;44.70;;;;;;492354;242;1231;-71
2022/10/20 02:03:30;;;;;;;;;;;24.00;44.70;;;;;;492380;242;1136;-71
2022/10/20 02:05:32;;;;;;;;;;;24.00;44.70;;;;;;492366;242;1118;-71
2022/10/20 02:07:33;;;;;;;;;;;24.10;44.70;;;;;;492368;242;1166;-71
2022/10/20 02:09:34;;;;;;;;;;;24.10;44.70;;;;;;492314;242;1196;-72
2022/10/20 02:11:36;;;;;;;;;;;24.10;44.60;;;;;;492433;242;1126;-71
2022/10/20 02:13:37;;;;;;;;;;;24.00;44.50;;;;;;492426;242;1142;-71
2022/10/20 02:15:38;;;;;;;;;;;24.00;44.50;;;;;;492344;242;1145;-71
2022/10/20 02:17:40;;;;;;;;;;;24.10;44.50;;;;;;492341;242;1198;-71
2022/10/20 02:19:41;;;;;;;;;;;24.10;44.40;;;;;;492389;242;2195;-71
2022/10/20 02:21:43;;;;;;;;;;;24.10;44.50;;;;;;492491;242;1227;-71
2022/10/20 02:23:44;;;;;;;;;;;24.10;44.40;;;;;;492397;242;1097;-71
2022/10/20 02:25:45;;;;;;;;;;;24.00;44.40;;;;;;492402;242;1158;-71
2022/10/20 02:27:46;;;;;;;;;;;24.00;44.40;;;;;;492443;242;1099;-71
2022/10/20 02:29:48;;;;;;;;;;;24.00;44.40;;;;;;492348;242;1177;-71
2022/10/20 02:31:49;;;;;;;;;;;24.00;44.40;;;;;;492390;242;1280;-71
2022/10/20 02:33:50;;;;;;;;;;;24.00;44.40;;;;;;492435;242;1119;-71
2022/10/20 02:35:52;;;;;;;;;;;24.00;44.40;;;;;;492329;242;1176;-72
2022/10/20 02:37:53;;;;;;;;;;;24.00;44.30;;;;;;492446;242;1190;-71
2022/10/20 02:39:54;;;;;;;;;;;24.00;44.20;;;;;;492372;242;2192;-71
2022/10/20 02:41:56;;;;;;;;;;;24.00;44.20;;;;;;492360;242;1141;-71
2022/10/20 02:43:57;;;;;;;;;;;24.00;44.30;;;;;;492384;242;1186;-71
2022/10/20 02:45:58;;;;;;;;;;;24.00;44.30;;;;;;492503;242;1125;-71
2022/10/20 02:48:00;;;;;;;;;;;24.00;44.30;;;;;;492399;242;1177;-71
2022/10/20 02:50:01;;;;;;;;;;;24.00;44.30;;;;;;492428;242;1197;-71
2022/10/20 02:52:03;;;;;;;;;;;23.90;44.20;;;;;;492419;242;1356;-71
2022/10/20 02:54:04;;;;;;;;;;;24.00;44.20;;;;;;492353;242;1171;-71
2022/10/20 02:56:05;;;;;;;;;;;23.90;44.20;;;;;;492403;242;1164;-71
2022/10/20 02:58:07;;;;;;;;;;;23.90;44.20;;;;;;492381;242;1254;-71
2022/10/20 03:00:08;;;;;;;;;;;23.90;44.20;;;;;;492376;242;2179;-71
2022/10/20 03:02:09;;;;;;;;;;;23.80;44.30;;;;;;492402;242;1203;-71
2022/10/20 03:04:11;;;;;;;;;;;23.90;44.40;;;;;;492372;242;1186;-71
2022/10/20 03:06:12;;;;;;;;;;;23.90;44.20;;;;;;492358;242;1470;-71
2022/10/20 03:08:13;;;;;;;;;;;24.00;44.00;;;;;;492369;242;1186;-72
2022/10/20 03:10:15;;;;;;;;;;;24.00;44.00;;;;;;492455;242;1205;-71
2022/10/20 03:12:16;;;;;;;;;;;24.00;43.90;;;;;;492387;242;1210;-71
2022/10/20 03:14:17;;;;;;;;;;;24.10;43.80;;;;;;492400;242;1238;-71
2022/10/20 03:16:19;;;;;;;;;;;24.10;43.70;;;;;;492397;242;1245;-71
2022/10/20 03:18:20;;;;;;;;;;;24.10;43.50;;;;;;492335;242;1165;-71
2022/10/20 03:20:21;;;;;;;;;;;24.10;43.50;;;;;;492456;242;2184;-71
2022/10/20 03:22:23;;;;;;;;;;;24.10;43.30;;;;;;492397;242;1195;-71
2022/10/20 03:24:24;;;;;;;;;;;24.20;43.40;;;;;;492421;242;1231;-71
2022/10/20 03:26:25;;;;;;;;;;;24.20;43.30;;;;;;492402;242;1183;-71
2022/10/20 03:28:27;;;;;;;;;;;24.20;43.20;;;;;;492398;242;1151;-71
2022/10/20 03:30:28;;;;;;;;;;;24.20;43.10;;;;;;492410;242;1201;-71
2022/10/20 03:32:29;;;;;;;;;;;24.30;43.10;;;;;;492379;242;1163;-71
2022/10/20 03:34:31;;;;;;;;;;;24.20;43.00;;;;;;492451;242;1184;-71
2022/10/20 03:36:32;;;;;;;;;;;24.20;42.90;;;;;;492403;242;1229;-71
2022/10/20 03:38:33;;;;;;;;;;;24.30;42.80;;;;;;492387;242;1307;-71
2022/10/20 03:40:35;;;;;;;;;;;24.40;42.80;;;;;;492438;242;2188;-71
2022/10/20 03:42:36;;;;;;;;;;;24.40;42.70;;;;;;492425;242;1107;-72
2022/10/20 03:44:38;;;;;;;;;;;24.40;42.70;;;;;;492427;242;1148;-71
2022/10/20 03:46:39;;;;;;;;;;;24.40;42.60;;;;;;492444;242;1541;-71
2022/10/20 03:48:40;;;;;;;;;;;24.40;42.50;;;;;;492480;242;1167;-71
2022/10/20 03:50:41;;;;;;;;;;;24.50;42.40;;;;;;492430;242;1202;-71
2022/10/20 03:52:43;;;;;;;;;;;24.50;42.40;;;;;;492418;242;1363;-71
2022/10/20 03:54:44;;;;;;;;;;;24.40;42.30;;;;;;492423;242;1136;-71
2022/10/20 03:56:45;;;;;;;;;;;24.50;42.30;;;;;;492412;242;1175;-71
2022/10/20 03:58:47;;;;;;;;;;;24.40;42.30;;;;;;492412;242;1147;-71
2022/10/20 04:00:48;;;;;;;;;;;24.40;42.30;;;;;;492444;242;2179;-71
2022/10/20 04:02:50;;;;;;;;;;;24.50;42.10;;;;;;492353;242;1298;-73
2022/10/20 04:04:51;;;;;;;;;;;24.50;42.00;;;;;;492342;242;1201;-73
2022/10/20 04:06:52;;;;;;;;;;;24.50;42.00;;;;;;492245;242;1177;-73
2022/10/20 04:08:53;;;;;;;;;;;24.50;42.00;;;;;;492343;242;1161;-73
2022/10/20 04:10:55;;;;;;;;;;;24.50;42.00;;;;;;492358;242;1183;-73
2022/10/20 04:12:56;;;;;;;;;;;24.50;41.80;;;;;;492381;242;1265;-73
2022/10/20 04:14:57;;;;;;;;;;;24.60;41.80;;;;;;492303;242;1170;-73
2022/10/20 04:16:59;;;;;;;;;;;24.50;41.70;;;;;;492333;242;1123;-73
2022/10/20 04:19:00;;;;;;;;;;;24.50;41.70;;;;;;492294;242;2208;-73
2022/10/20 04:21:01;;;;;;;;;;;24.50;41.60;;;;;;492283;242;1123;-73
2022/10/20 04:23:03;;;;;;;;;;;24.60;41.50;;;;;;492275;242;1266;-73
2022/10/20 04:25:04;;;;;;;;;;;24.50;41.50;;;;;;492430;242;1196;-73
2022/10/20 04:27:05;;;;;;;;;;;24.40;41.70;;;;;;492307;242;1213;-73
2022/10/20 04:29:07;;;;;;;;;;;24.40;41.80;;;;;;492283;242;1337;-73
2022/10/20 04:31:08;;;;;;;;;;;24.30;41.90;;;;;;492241;242;1130;-73
2022/10/20 04:33:09;;;;;;;;;;;24.40;41.90;;;;;;492214;242;1250;-73
2022/10/20 04:35:11;;;;;;;;;;;24.30;41.80;;;;;;492309;242;1244;-73
2022/10/20 04:37:12;;;;;;;;;;;24.20;41.90;;;;;;492270;242;1146;-73
2022/10/20 04:39:13;;;;;;;;;;;24.30;41.90;;;;;;492250;242;2200;-73
2022/10/20 04:41:14;;;;;;;;;;;24.20;41.90;;;;;;492354;242;1142;-73
2022/10/20 04:43:16;;;;;;;;;;;24.20;42.00;;;;;;492288;242;1210;-73
2022/10/20 04:45:17;;;;;;;;;;;24.20;42.00;;;;;;492230;242;1222;-73
2022/10/20 04:47:18;;;;;;;;;;;24.20;42.00;;;;;;492183;242;1180;-73
2022/10/20 04:49:20;;;;;;;;;;;24.10;41.90;;;;;;492292;242;1150;-73
2022/10/20 04:51:21;;;;;;;;;;;24.10;42.00;;;;;;492274;242;1304;-73
2022/10/20 04:53:22;;;;;;;;;;;24.20;42.10;;;;;;492279;242;1216;-73
2022/10/20 04:55:24;;;;;;;;;;;24.10;41.90;;;;;;492215;242;1207;-73
2022/10/20 04:57:25;;;;;;;;;;;24.00;42.10;;;;;;492295;242;1150;-73
2022/10/20 04:59:26;;;;;;;;;;;24.00;42.30;;;;;;492326;242;2192;-73
2022/10/20 05:01:28;;;;;;;;;;;24.10;42.10;;;;;;492274;242;1175;-73
2022/10/20 05:03:29;;;;;;;;;;;24.10;42.10;;;;;;492270;242;1181;-73
2022/10/20 05:05:30;;;;;;;;;;;24.20;41.90;;;;;;492187;242;1133;-73
2022/10/20 05:07:32;;;;;;;;;;;24.20;41.80;;;;;;492276;242;1097;-73
2022/10/20 05:09:33;;;;;;;;;;;24.20;41.70;;;;;;492273;242;1283;-74
2022/10/20 05:11:34;;;;;;;;;;;24.30;41.60;;;;;;492326;242;1277;-74
2022/10/20 05:13:36;;;;;;;;;;;24.30;41.50;;;;;;492233;242;1137;-73
2022/10/20 05:15:37;;;;;;;;;;;24.30;41.30;;;;;;492296;242;1350;-73
2022/10/20 05:17:38;;;;;;;;;;;24.40;41.40;;;;;;492194;242;1172;-73
2022/10/20 05:19:40;;;;;;;;;;;24.40;41.30;;;;;;492290;242;2180;-73
2022/10/20 05:21:41;;;;;;;;;;;24.40;41.20;;;;;;492251;242;1131;-73
2022/10/20 05:23:42;;;;;;;;;;;24.40;41.20;;;;;;492198;242;1292;-73
2022/10/20 05:25:44;;;;;;;;;;;24.40;41.10;;;;;;492246;242;1169;-73
2022/10/20 05:27:45;;;;;;;;;;;24.40;41.10;;;;;;492217;242;1133;-73
2022/10/20 05:29:46;;;;;;;;;;;24.40;41.10;;;;;;492237;242;1197;-73
2022/10/20 05:31:48;;;;;;;;;;;24.50;41.00;;;;;;492276;242;1199;-73
2022/10/20 05:33:49;;;;;;;;;;;24.50;40.90;;;;;;492208;242;1148;-73
2022/10/20 05:35:50;;;;;;;;;;;24.50;40.90;;;;;;492264;242;1129;-73
2022/10/20 05:37:52;;;;;;;;;;;24.50;40.80;;;;;;492179;242;1178;-73
2022/10/20 05:39:53;;;;;;;;;;;24.50;40.80;;;;;;492237;242;2161;-73
2022/10/20 05:41:54;;;;;;;;;;;24.50;40.80;;;;;;492137;242;1171;-73
2022/10/20 05:43:56;;;;;;;;;;;24.50;40.80;;;;;;492164;242;1224;-73
2022/10/20 05:45:58;;;;;;;;;;;24.50;40.70;;;;;;492241;242;1244;-73
2022/10/20 05:47:59;;;;;;;;;;;24.50;40.80;;;;;;492243;242;1236;-73
2022/10/20 05:50:00;;;;;;;;;;;24.50;40.70;;;;;;492198;242;1139;-73
2022/10/20 05:52:02;;;;;;;;;;;24.50;40.60;;;;;;492172;242;1146;-73
2022/10/20 05:54:03;;;;;;;;;;;24.50;40.60;;;;;;492228;242;1183;-73
2022/10/20 05:56:04;;;;;;;;;;;24.60;40.60;;;;;;492228;242;1172;-73
2022/10/20 05:58:06;;;;;;;;;;;24.60;40.60;;;;;;492259;242;1336;-73
2022/10/20 06:00:07;;;;;;;;;;;24.60;40.50;;;;;;492156;242;2148;-73
2022/10/20 06:02:08;;;;;;;;;;;24.50;40.50;;;;;;492149;242;1238;-73
2022/10/20 06:04:10;;;;;;;;;;;24.60;40.40;;;;;;492232;242;1297;-73
2022/10/20 06:06:11;;;;;;;;;;;24.50;40.60;;;;;;492193;242;1135;-73
2022/10/20 06:08:12;;;;;;;;;;;24.50;40.50;;;;;;492270;242;1144;-73
2022/10/20 06:10:14;;;;;;;;;;;24.60;40.50;;;;;;492198;242;1159;-73
2022/10/20 06:12:15;;;;;;;;;;;24.60;40.40;;;;;;492162;242;1233;-73
2022/10/20 06:14:16;;;;;;;;;;;24.60;40.20;;;;;;492222;242;1312;-73
2022/10/20 06:16:18;;;;;;;;;;;24.60;40.20;;;;;;492082;242;1197;-73
2022/10/20 06:18:19;;;;;;;;;;;24.70;40.10;;;;;;492223;242;1181;-73
2022/10/20 06:20:20;;;;;;;;;;;24.60;40.20;;;;;;492198;242;2180;-73
2022/10/20 06:22:22;;;;;;;;;;;24.60;40.30;;;;;;492100;242;1198;-73
2022/10/20 06:24:23;;;;;;;;;;;24.50;40.30;;;;;;492158;242;1221;-73
2022/10/20 06:26:24;;;;;;;;;;;24.50;40.40;;;;;;492093;242;1193;-73
2022/10/20 06:28:26;;;;;;;;;;;24.40;40.50;;;;;;491947;242;1160;-73
2022/10/20 06:30:27;;;;;;;;;;;24.40;40.60;;;;;;492147;242;1231;-73
2022/10/20 06:32:28;;;;;;;;;;;24.30;40.60;;;;;;492135;242;1196;-73
2022/10/20 06:34:30;;;;;;;;;;;24.30;40.60;;;;;;492119;242;1177;-73
2022/10/20 06:36:31;;;;;;;;;;;24.30;40.70;;;;;;492089;242;1133;-73
2022/10/20 06:38:32;;;;;;;;;;;24.20;40.70;;;;;;492151;242;1149;-73
2022/10/20 06:40:34;;;;;;;;;;;24.20;40.70;;;;;;492231;242;2148;-73
2022/10/20 06:42:35;;;;;;;;;;;24.20;40.80;;;;;;492230;242;1188;-73
2022/10/20 06:44:36;;;;;;;;;;;24.20;41.00;;;;;;492009;242;1209;-73
2022/10/20 06:46:38;;;;;;;;;;;24.20;40.80;;;;;;492155;242;1154;-73
2022/10/20 06:48:39;;;;;;;;;;;24.20;40.80;;;;;;492147;242;1178;-73
2022/10/20 06:50:40;;;;;;;;;;;24.20;40.80;;;;;;492112;242;1178;-73
2022/10/20 06:52:42;;;;;;;;;;;24.20;40.90;;;;;;492052;242;1224;-73
2022/10/20 06:54:43;;;;;;;;;;;24.10;41.00;;;;;;492157;242;1154;-73
2022/10/20 06:56:44;;;;;;;;;;;24.10;41.00;;;;;;492053;242;1208;-74
2022/10/20 06:58:45;;;;;;;;;;;24.10;41.00;;;;;;492135;242;1106;-73
2022/10/20 07:00:47;;;;;;;;;;;24.10;41.10;;;;;;492177;242;2180;-73
2022/10/20 07:02:48;;;;;;;;;;;24.00;41.10;;;;;;492093;242;1184;-72
2022/10/20 07:04:49;;;;;;;;;;;24.00;41.40;;;;;;492199;242;1132;-73
2022/10/20 07:06:51;;;;;;;;;;;24.00;41.30;;;;;;492234;242;1096;-73
2022/10/20 07:08:53;;;;;;;;;;;24.10;41.20;;;;;;492243;242;1119;-73
2022/10/20 07:10:54;;;;;;;;;;;24.10;41.10;;;;;;492127;242;1122;-73
2022/10/20 07:12:55;;;;;;;;;;;24.20;41.10;;;;;;492098;242;1331;-73
2022/10/20 07:14:57;;;;;;;;;;;24.10;41.10;;;;;;492121;242;1186;-73
2022/10/20 07:16:58;;;;;;;;;;;24.20;41.10;;;;;;492172;242;1063;-73
2022/10/20 07:18:59;;;;;;;;;;;24.20;41.00;;;;;;491950;242;1163;-73
2022/10/20 07:21:01;;;;;;;;;;;24.20;41.00;;;;;;492082;242;2188;-73
2022/10/20 07:23:02;;;;;;;;;;;24.30;41.00;;;;;;491934;242;1161;-73
2022/10/20 07:25:05;;;;;;;;;;;24.30;41.00;;;;;;492012;242;1156;-73
2022/10/20 07:27:05;;;;;;;;;;;24.30;41.00;;;;;;492063;242;1473;-73
2022/10/20 07:29:06;;;;;;;;;;;24.30;41.00;;;;;;492061;242;1166;-73
2022/10/20 07:31:07;;;;;;;;;;;24.30;40.90;;;;;;491893;242;1114;-73
2022/10/20 07:33:09;;;;;;;;;;;24.30;41.00;;;;;;491915;242;1413;-73
2022/10/20 07:35:10;;;;;;;;;;;24.20;41.00;;;;;;492000;242;1166;-73
2022/10/20 07:37:11;;;;;;;;;;;24.20;41.10;;;;;;491934;242;1154;-72
2022/10/20 07:39:13;;;;;;;;;;;24.10;41.10;;;;;;492039;242;1313;-73
2022/10/20 07:41:14;;;;;;;;;;;24.10;41.30;;;;;;491863;242;2188;-73
2022/10/20 07:43:15;;;;;;;;;;;24.10;41.40;;;;;;492143;242;1128;-73
2022/10/20 07:45:17;;;;;;;;;;;24.10;41.30;;;;;;492050;242;1159;-73
2022/10/20 07:47:18;;;;;;;;;;;24.10;41.20;;;;;;491960;242;1128;-73
2022/10/20 07:49:19;;;;;;;;;;;24.10;41.30;;;;;;492074;242;1177;-73
2022/10/20 07:51:21;;;;;;;;;;;24.10;41.40;;;;;;491957;242;1234;-73
2022/10/20 07:53:22;;;;;;;;;;;24.00;41.30;;;;;;492002;242;1163;-73
2022/10/20 07:55:23;;;;;;;;;;;24.10;41.40;;;;;;492045;242;1239;-73
2022/10/20 07:57:25;;;;;;;;;;;24.00;41.40;;;;;;491985;242;1255;-73
2022/10/20 07:59:27;;;;;;;;;;;24.00;41.60;;;;;;492013;242;1238;-73
2022/10/20 08:01:27;;;;;;;;;;;24.00;41.50;;;;;;492032;242;2192;-73
2022/10/20 08:03:29;;;;;;;;;;;24.00;41.50;;;;;;492030;242;1143;-73
2022/10/20 08:05:30;;;;;;;;;;;24.00;41.60;;;;;;492040;242;1281;-73
2022/10/20 08:07:31;;;;;;;;;;;23.90;41.70;;;;;;492107;242;1242;-73
2022/10/20 08:09:33;;;;;;;;;;;23.90;41.80;;;;;;492111;242;1187;-73
2022/10/20 08:11:34;;;;;;;;;;;24.00;41.70;;;;;;492160;242;1203;-73
2022/10/20 08:13:35;;;;;;;;;;;24.00;41.60;;;;;;491851;242;1151;-72
2022/10/20 08:15:36;;;;;;;;;;;24.10;41.50;;;;;;492164;242;1228;-73
2022/10/20 08:17:38;;;;;;;;;;;24.20;41.40;;;;;;492174;242;1164;-73
2022/10/20 08:19:39;;;;;;;;;;;24.20;41.30;;;;;;492108;242;1239;-73
2022/10/20 08:21:40;;;;;;;;;;;24.20;41.30;;;;;;491828;242;2160;-72
2022/10/20 08:23:42;;;;;;;;;;;24.20;41.30;;;;;;492077;242;1218;-73
2022/10/20 08:25:43;;;;;;;;;;;24.20;41.30;;;;;;491911;242;1207;-73
2022/10/20 08:27:44;;;;;;;;;;;24.30;41.20;;;;;;492039;242;1131;-73
2022/10/20 08:29:46;;;;;;;;;;;24.30;41.10;;;;;;492040;242;1280;-73
2022/10/20 08:31:47;;;;;;;;;;;24.30;41.20;;;;;;492024;242;1243;-73
2022/10/20 08:33:48;;;;;;;;;;;24.40;41.10;;;;;;492167;242;1073;-73
2022/10/20 08:35:50;;;;;;;;;;;24.40;41.10;;;;;;492094;242;1085;-72
2022/10/20 08:37:51;;;;;;;;;;;24.30;41.10;;;;;;492106;242;1221;-73
2022/10/20 08:39:52;;;;;;;;;;;24.30;41.20;;;;;;491962;242;1190;-73
2022/10/20 08:41:54;;;;;;;;;;;24.30;41.20;;;;;;492198;242;2184;-73
2022/10/20 08:43:55;;;;;;;;;;;24.50;41.00;;;;;;492139;242;1199;-73
2022/10/20 08:45:56;;;;;;;;;;;24.40;40.90;;;;;;492057;242;1236;-73
2022/10/20 08:47:58;;;;;;;;;;;24.40;41.00;;;;;;492031;242;1584;-73
2022/10/20 08:49:59;;;;;;;;;;;24.30;41.20;;;;;;492091;242;1088;-73
2022/10/20 08:52:00;;;;;;;;;;;24.30;41.20;;;;;;491990;242;1116;-73
2022/10/20 08:54:02;;;;;;;;;;;24.30;41.20;;;;;;491847;242;1218;-73
2022/10/20 08:56:03;;;;;;;;;;;24.30;41.30;;;;;;491968;242;1141;-73
2022/10/20 08:58:04;;;;;;;;;;;24.20;41.20;;;;;;492102;242;1372;-73
2022/10/20 09:00:06;;;;;;;;;;;24.20;41.30;;;;;;492088;242;1282;-73
2022/10/20 09:02:07;;;;;;;;;;;24.20;41.30;;;;;;491825;242;2196;-73
2022/10/20 09:04:08;;;;;;;;;;;24.20;41.40;;;;;;491971;242;1175;-73
2022/10/20 09:06:10;;;;;;;;;;;24.20;41.50;;;;;;491993;242;1301;-73
2022/10/20 09:08:11;;;;;;;;;;;24.20;41.60;;;;;;491897;242;1265;-73
2022/10/20 09:10:12;;;;;;;;;;;24.20;41.60;;;;;;492044;242;1185;-73
2022/10/20 09:12:14;;;;;;;;;;;24.20;41.60;;;;;;491978;242;1189;-73
2022/10/20 09:14:15;;;;;;;;;;;24.20;41.60;;;;;;492058;242;1214;-73
2022/10/20 09:16:17;;;;;;;;;;;24.20;41.70;;;;;;491976;242;1197;-73
2022/10/20 09:18:18;;;;;;;;;;;24.20;41.80;;;;;;491988;242;1104;-72
2022/10/20 09:20:19;;;;;;;;;;;24.20;41.70;;;;;;492040;242;1135;-73
2022/10/20 09:27:07;;;;;;;;;;;24.10;42.00;;;;;;484709;246;1428;-73
2022/10/20 09:29:08;;;;;;;;;;;24.10;42.00;;;;;;484930;246;1266;-73
2022/10/20 09:31:10;;;;;;;;;;;24.10;42.00;;;;;;485035;245;1237;-73
2022/10/20 09:33:11;;;;;;;;;;;24.10;41.90;;;;;;485050;245;1208;-73
2022/10/20 09:35:12;;;;;;;;;;;24.20;42.00;;;;;;484983;246;1129;-73
2022/10/20 09:37:14;;;;;;;;;;;24.20;42.00;;;;;;485012;246;1186;-72
2022/10/20 09:39:15;;;;;;;;;;;24.10;42.10;;;;;;485051;245;1450;-73
2022/10/20 09:41:16;;;;;;;;;;;24.10;42.10;;;;;;485107;246;2187;-73
2022/10/20 09:43:17;;;;;;;;;;;24.20;42.10;;;;;;485077;246;1219;-73
2022/10/20 09:45:20;;;;;;;;;;;24.10;42.10;;;;;;485041;246;1209;-72
2022/10/20 09:47:21;;;;;;;;;;;24.10;42.20;;;;;;484922;246;1560;-73
2022/10/20 09:49:22;;;;;;;;;;;24.10;42.20;;;;;;485146;246;1305;-70
2022/10/20 09:51:23;;;;;;;;;;;24.10;42.20;;;;;;485144;246;1127;-70
2022/10/20 09:53:25;;;;;;;;;;;24.00;42.40;;;;;;485070;245;1114;-70
2022/10/20 09:55:26;;;;;;;;;;;24.00;42.40;;;;;;485162;246;1158;-70
2022/10/20 09:57:27;;;;;;;;;;;24.00;42.40;;;;;;485093;245;1159;-70
2022/10/20 09:59:29;;;;;;;;;;;24.10;42.40;;;;;;485109;245;1315;-70
2022/10/20 10:01:30;;;;;;;;;;;24.00;42.70;;;;;;485171;246;2194;-70
2022/10/20 10:03:31;;;;;;;;;;;24.00;42.80;;;;;;485193;245;1144;-70
2022/10/20 10:05:33;;;;;;;;;;;24.10;42.80;;;;;;485256;245;1141;-70
2022/10/20 10:07:34;;;;;;;;;;;24.10;42.70;;;;;;485208;246;1129;-70
2022/10/20 10:09:36;;;;;;;;;;;24.00;42.60;;;;;;485255;246;1142;-70
2022/10/20 10:11:37;;;;;;;;;;;24.10;42.50;;;;;;485150;246;1616;-70
2022/10/20 10:13:38;;;;;;;;;;;24.10;42.50;;;;;;485008;245;1310;-70
2022/10/20 10:15:39;;;;;;;;;;;24.10;42.60;;;;;;485100;245;1146;-70
2022/10/20 10:17:41;;;;;;;;;;;24.10;42.60;;;;;;485158;246;1114;-70
2022/10/20 10:19:42;;;;;;;;;;;24.10;42.50;;;;;;485148;245;1145;-71
2022/10/20 10:21:43;;;;;;;;;;;24.20;42.40;;;;;;485000;246;2179;-73
2022/10/20 10:23:45;;;;;;;;;;;24.20;42.40;;;;;;485066;246;1135;-73
2022/10/20 10:25:46;;;;;;;;;;;24.20;42.50;;;;;;485225;246;1225;-73
2022/10/20 10:27:47;;;;;;;;;;;24.20;42.50;;;;;;485185;245;1239;-73
2022/10/20 10:29:49;;;;;;;;;;;24.30;42.40;;;;;;485094;246;1142;-73
2022/10/20 10:31:50;;;;;;;;;;;24.30;42.40;;;;;;485240;245;1181;-73
2022/10/20 10:33:52;;;;;;;;;;;24.30;42.50;;;;;;484899;245;1211;-73
2022/10/20 10:35:53;;;;;;;;;;;24.30;42.50;;;;;;485269;246;1157;-73
2022/10/20 10:37:54;;;;;;;;;;;24.40;42.50;;;;;;485279;245;1256;-73
2022/10/20 10:39:56;;;;;;;;;;;24.30;42.50;;;;;;485039;246;1160;-73
2022/10/20 10:41:57;;;;;;;;;;;24.40;42.50;;;;;;484639;245;2203;-74
2022/10/20 10:43:59;;;;;;;;;;;24.30;42.60;;;;;;484739;246;1197;-73
2022/10/20 10:46:00;;;;;;;;;;;24.20;42.70;;;;;;484697;245;1204;-73
2022/10/20 10:48:01;;;;;;;;;;;24.10;42.90;;;;;;484826;246;1223;-73
2022/10/20 10:50:02;;;;;;;;;;;24.10;43.20;;;;;;484992;246;1158;-73
2022/10/20 10:52:04;;;;;;;;;;;24.00;43.30;;;;;;485082;245;1263;-73
2022/10/20 10:54:05;;;;;;;;;;;23.90;43.40;;;;;;485076;246;1132;-73
2022/10/20 10:56:06;;;;;;;;;;;23.90;43.50;;;;;;484783;246;1217;-73
2022/10/20 10:58:08;;;;;;;;;;;23.80;43.60;;;;;;485034;246;1240;-73
2022/10/20 11:00:09;;;;;;;;;;;23.80;43.70;;;;;;485077;245;1191;-73
2022/10/20 11:02:10;;;;;;;;;;;23.80;43.70;;;;;;484879;246;2187;-73
2022/10/20 11:04:12;;;;;;;;;;;23.70;43.80;;;;;;485107;245;1107;-73
2022/10/20 11:06:13;;;;;;;;;;;23.70;43.90;;;;;;484805;246;1144;-73
2022/10/20 11:08:14;;;;;;;;;;;23.70;44.00;;;;;;485060;245;1386;-73
2022/10/20 11:10:16;;;;;;;;;;;23.70;44.10;;;;;;485148;246;1258;-73
2022/10/20 11:12:17;;;;;;;;;;;23.70;44.20;;;;;;484842;246;1512;-73
2022/10/20 11:14:18;;;;;;;;;;;23.60;44.30;;;;;;485148;246;1187;-73
2022/10/20 11:16:20;;;;;;;;;;;23.60;44.50;;;;;;484944;246;1130;-73
2022/10/20 11:18:21;;;;;;;;;;;23.60;44.40;;;;;;485110;246;1384;-73
2022/10/20 11:20:22;;;;;;;;;;;23.70;44.40;;;;;;485149;245;1138;-73
2022/10/20 11:22:24;;;;;;;;;;;23.70;44.20;;;;;;485009;246;2202;-74
2022/10/20 11:24:25;;;;;;;;;;;23.70;44.20;;;;;;485214;245;1128;-74
2022/10/20 11:26:26;;;;;;;;;;;23.80;44.20;;;;;;485107;246;1155;-73
2022/10/20 11:28:28;;;;;;;;;;;23.80;44.20;;;;;;485105;245;1235;-73
2022/10/20 11:30:29;;;;;;;;;;;23.80;44.20;;;;;;485208;246;1241;-73
2022/10/20 11:32:30;;;;;;;;;;;23.80;44.10;;;;;;485153;245;1229;-73
2022/10/20 11:34:32;;;;;;;;;;;23.80;44.20;;;;;;484996;246;1210;-73
2022/10/20 11:36:33;;;;;;;;;;;23.90;44.00;;;;;;485045;245;1213;-73
2022/10/20 11:38:34;;;;;;;;;;;24.00;43.90;;;;;;485212;246;1275;-74
2022/10/20 11:40:36;;;;;;;;;;;24.00;43.90;;;;;;485172;245;1252;-74
2022/10/20 11:42:37;;;;;;;;;;;24.00;43.90;;;;;;485136;246;2159;-74
2022/10/20 11:44:38;;;;;;;;;;;24.10;43.90;;;;;;485131;245;1210;-74
2022/10/20 11:46:40;;;;;;;;;;;24.10;43.80;;;;;;485228;246;1153;-74
2022/10/20 11:48:41;;;;;;;;;;;24.10;43.90;;;;;;485310;245;1148;-74
2022/10/20 11:50:42;;;;;;;;;;;24.10;43.70;;;;;;485169;246;1202;-74
2022/10/20 11:52:44;;;;;;;;;;;24.10;43.70;;;;;;485029;246;1180;-73
2022/10/20 11:54:45;;;;;;;;;;;24.00;43.80;;;;;;485114;246;1128;-73
2022/10/20 11:56:46;;;;;;;;;;;24.00;43.90;;;;;;484985;246;1131;-73
2022/10/20 11:58:48;;;;;;;;;;;24.00;44.10;;;;;;485165;245;1231;-73
2022/10/20 12:00:49;;;;;;;;;;;23.90;44.00;;;;;;485118;246;1203;-73